Orient Challenge — 9V5083 — position and weather

sailwx.info

Track history (hours):
 
Tides and Currents Weather Stations Pressure Air Temp Water Temp Dewpoint Dewpoint Depression Visibility Wind Speed Wind Dir Waves Ship Positions

Orient Challenge

Last reported at 2018-Apr-18 19:19 UTC. Time now 2018-Apr-20 12:28 UTC.
Position N 33°06' W 120°25'.

Length 183 m; draft 10.4 m.

Type: Tanker. MMSI: 563022700.

Date/timePositionNaut miles runAvg speedWind from/ knotsBaromVisibWave heightAir tempDewpointWater temp
2018-Apr-18 19:19N 33°06' W 120°25'3213.1
2018-Apr-18 16:53N 33°35' W 120°42'513.1
2018-Apr-18 16:30N 33°40' W 120°44'713.3
2018-Apr-18 16:00N 33°46' W 120°47'713.4
2018-Apr-18 15:30N 33°52' W 120°51'713.4
2018-Apr-18 15:00N 33°58' W 120°54'713.1
2018-Apr-18 14:30N 34°04' W 120°58'612.8
2018-Apr-18 14:00N 34°09' W 121°01'713.2
2018-Apr-18 13:30N 34°15' W 121°05'713.4
2018-Apr-18 13:00N 34°21' W 121°09'713.4
2018-Apr-18 12:30N 34°27' W 121°13'713.1
2018-Apr-18 12:00N 34°33' W 121°17'612.9
2018-Apr-18 11:30N 34°38' W 121°20'613.0
2018-Apr-18 11:00N 34°44' W 121°25'1113.2
2018-Apr-18 10:11N 34°53' W 121°31'213.1
2018-Apr-18 10:00N 34°55' W 121°33'913.1
2018-Apr-18 09:19N 35°03' W 121°38'413.1
2018-Apr-18 09:00N 35°07' W 121°40'13013.2
2018-Apr-17 23:11N 37°07' W 122°39'213.5
2018-Apr-17 23:00N 37°10' W 122°40'713.8
2018-Apr-17 22:30N 37°16' W 122°43'713.5
2018-Apr-17 22:00N 37°23' W 122°43'713.4
2018-Apr-17 21:31N 37°30' W 122°44'713.0
2018-Apr-17 21:00N 37°36' W 122°44'612.2
2018-Apr-17 20:30N 37°42' W 122°42'5 9.1
2018-Apr-17 20:00N 37°46' W 122°40'5 9.7
2018-Apr-17 19:30N 37°47' W 122°34'510.2
2018-Apr-17 19:00N 37°49' W 122°28'4 7.3
2018-Apr-17 18:30N 37°50' W 122°24'4 8.0
2018-Apr-17 18:00N 37°46' W 122°21'0 0.2
2018-Apr-17 17:30N 37°46' W 122°21'0 0.1
2018-Apr-17 17:00N 37°46' W 122°21'0 0.0
2018-Apr-17 16:30N 37°46' W 122°21'0 0.1
2018-Apr-17 16:00N 37°46' W 122°21'0 0.1
2018-Apr-17 15:30N 37°46' W 122°21'0 0.3
2018-Apr-17 15:00N 37°46' W 122°21'0 0.1
2018-Apr-17 14:30N 37°46' W 122°21'0 0.0
2018-Apr-17 14:00N 37°46' W 122°21'0 0.0
2018-Apr-17 13:30N 37°46' W 122°21'0 0.1
2018-Apr-17 13:00N 37°46' W 122°21'0 0.0
2018-Apr-17 12:30N 37°46' W 122°21'0 0.0
2018-Apr-17 12:00N 37°46' W 122°21'0 0.0
2018-Apr-17 11:30N 37°46' W 122°21'0 0.3
2018-Apr-17 11:00N 37°46' W 122°21'1 1.5
2018-Apr-17 10:30N 37°47' W 122°21'3 6.9
2018-Apr-17 10:00N 37°50' W 122°24'510.1
2018-Apr-17 09:30N 37°54' W 122°27'5 9.2
2018-Apr-17 09:00N 37°59' W 122°26'4 8.8
2018-Apr-17 08:30N 38°02' W 122°22'4 7.6
2018-Apr-17 08:00N 38°03' W 122°17'3 6.7
2018-Apr-17 07:30N 38°04' W 122°13'3 6.5
2018-Apr-17 07:00N 38°02' W 122°10'  
2018-Apr-14 05:00N 38°02' W 122°08'4 7.7
2018-Apr-14 04:30N 38°03' W 122°12'612.6
2018-Apr-14 04:00N 38°03' W 122°20'612.9
2018-Apr-14 03:30N 37°58' W 122°26'611.8
2018-Apr-14 03:00N 37°53' W 122°25'4 7.3
2018-Apr-14 02:30N 37°49' W 122°26'612.4
2018-Apr-14 02:01N 37°47' W 122°34'510.9
2018-Apr-14 01:30N 37°45' W 122°40'3 5.1
2018-Apr-14 01:00N 37°42' W 122°40'2 3.4
2018-Apr-14 00:30N 37°41' W 122°40'2 3.9
2018-Apr-14 00:00N 37°39' W 122°40'4 7.1
2018-Apr-13 23:30N 37°35' W 122°39'3 5.5
2018-Apr-13 23:00N 37°32' W 122°39'3 5.3
2018-Apr-13 22:30N 37°30' W 122°39'3 6.2
2018-Apr-13 22:00N 37°27' W 122°40'510.0
2018-Apr-13 21:30N 37°22' W 122°39'611.3
2018-Apr-13 21:01N 37°16' W 122°39'611.5
2018-Apr-13 20:30N 37°10' W 122°37'611.5
2018-Apr-13 20:00N 37°05' W 122°35'611.2
2018-Apr-13 19:30N 36°60' W 122°33'510.5
2018-Apr-13 19:00N 36°55' W 122°31'2 3.4
2018-Apr-13 18:30N 36°53' W 122°32'1 2.5
2018-Apr-13 18:00N 36°52' W 122°32'611.3
2018-Apr-13 17:29N 36°46' W 122°30'11110.8
2018-Apr-13 07:10N 35°03' W 121°38'1 9.1
2018-Apr-13 07:00N 35°02' W 121°37'5 9.1
2018-Apr-13 06:30N 34°58' W 121°35'4 8.8
2018-Apr-13 06:00N 34°54' W 121°32'4 8.7
2018-Apr-13 05:30N 34°50' W 121°30'5 9.0
2018-Apr-13 05:00N 34°46' W 121°27'4 8.6
2018-Apr-13 04:30N 34°43' W 121°24'4 8.5
2018-Apr-13 04:00N 34°39' W 121°22'4 8.7
2018-Apr-13 03:30N 34°35' W 121°19'4 8.7
2018-Apr-13 03:00N 34°32' W 121°16'4 8.8
2018-Apr-13 02:30N 34°28' W 121°14'4 8.4
2018-Apr-13 02:00N 34°24' W 121°11'4 8.6
2018-Apr-13 01:30N 34°20' W 121°08'5 8.9
2018-Apr-13 00:59N 34°16' W 121°06'4 8.8
2018-Apr-13 00:30N 34°13' W 121°03'4 8.4
2018-Apr-13 00:00N 34°09' W 121°01'4 8.8
2018-Apr-12 23:30N 34°05' W 120°58'5 9.1
2018-Apr-12 23:01N 34°01' W 120°56'4 8.8
2018-Apr-12 22:31N 33°58' W 120°53'4 8.8
2018-Apr-12 22:01N 33°54' W 120°50'4 8.6
2018-Apr-12 21:30N 33°50' W 120°47'4 8.3
2018-Apr-12 21:00N 33°48' W 120°43'5 9.4
2018-Apr-12 20:30N 33°45' W 120°38'5 9.6
2018-Apr-12 20:00N 33°43' W 120°33'510.4
2018-Apr-12 19:29N 33°41' W 120°27'510.3
2018-Apr-12 19:01N 33°39' W 120°22'510.1
2018-Apr-12 18:30N 33°36' W 120°16'510.0
2018-Apr-12 18:00N 33°34' W 120°11'5 9.4
2018-Apr-12 17:30N 33°33' W 120°05'610.3
2018-Apr-12 16:58N 33°33' W 119°59'510.1
2018-Apr-12 16:30N 33°33' W 119°53'510.2
2018-Apr-12 16:00N 33°33' W 119°47'510.3
2018-Apr-12 15:30N 33°32' W 119°41'510.4
2018-Apr-12 15:00N 33°32' W 119°35'510.5
2018-Apr-12 14:30N 33°33' W 119°28'510.6
2018-Apr-12 14:00N 33°34' W 119°22'611.1
2018-Apr-12 13:31N 33°35' W 119°16'612.1
2018-Apr-12 13:00N 33°36' W 119°08'612.2
2018-Apr-12 12:31N 33°37' W 119°01'611.3
2018-Apr-12 12:00N 33°36' W 118°55'511.0
2018-Apr-12 11:30N 33°35' W 118°48'510.3
2018-Apr-12 11:00N 33°35' W 118°42'510.2
2018-Apr-12 10:30N 33°34' W 118°36'510.3
2018-Apr-12 10:00N 33°33' W 118°30'510.3
2018-Apr-12 09:30N 33°33' W 118°24'611.0
2018-Apr-12 08:57N 33°34' W 118°17'511.5
2018-Apr-12 08:31N 33°38' W 118°13'5 9.2
2018-Apr-12 08:00N 33°43' W 118°11'2 3.9
2018-Apr-12 07:30N 33°44' W 118°13'0 0.4
2018-Apr-12 06:55N 33°44' W 118°13'0 0.1
2018-Apr-12 06:28N 33°44' W 118°13'0 0.0
2018-Apr-12 05:55N 33°44' W 118°13'0 0.1
2018-Apr-12 05:19N 33°44' W 118°13'0 0.2
2018-Apr-12 04:58N 33°44' W 118°13'0 0.1
2018-Apr-12 04:28N 33°44' W 118°13'0 0.1
2018-Apr-12 03:49N 33°44' W 118°13'0 0.1
2018-Apr-12 03:28N 33°44' W 118°13'0 0.0
2018-Apr-12 02:58N 33°44' W 118°13'0 0.1
2018-Apr-12 02:28N 33°43' W 118°13'0 0.1
2018-Apr-12 01:58N 33°43' W 118°13'0 0.2
2018-Apr-12 01:30N 33°44' W 118°13'0 0.6
2018-Apr-12 01:00N 33°44' W 118°13'0 0.6
2018-Apr-12 00:30N 33°44' W 118°12'3 5.9
2018-Apr-12 00:00N 33°41' W 118°11'3 6.1
2018-Apr-11 23:30N 33°38' W 118°10'4 7.0
2018-Apr-11 23:00N 33°35' W 118°09'4 7.8
2018-Apr-11 22:30N 33°31' W 118°08'510.2
2018-Apr-11 22:00N 33°26' W 118°06'612.0
2018-Apr-11 21:30N 33°20' W 118°03'611.5
2018-Apr-11 21:00N 33°15' W 118°00'611.2
2018-Apr-11 20:29N 33°10' W 117°57'511.2
2018-Apr-11 20:00N 33°05' W 117°54'611.6
2018-Apr-11 19:30N 32°60' W 117°52'612.2
2018-Apr-11 19:00N 32°54' W 117°49'612.4
2018-Apr-11 18:30N 32°49' W 117°45'612.3
2018-Apr-11 18:00N 32°43' W 117°42'712.3
2018-Apr-11 17:27N 32°37' W 117°39'511.8
2018-Apr-11 17:00N 32°32' W 117°37'1 2.0
2018-Apr-11 16:30N 32°31' W 117°37'2 4.1
2018-Apr-11 16:00N 32°29' W 117°37'713.0
2018-Apr-11 15:27N 32°22' W 117°35'713.4
2018-Apr-11 14:57N 32°15' W 117°33'613.3
2018-Apr-11 14:30N 32°10' W 117°31'813.5
2018-Apr-11 13:53N 32°01' W 117°29'513.4
2018-Apr-11 13:30N 31°56' W 117°28'713.1
2018-Apr-11 12:59N 31°50' W 117°26'1613.2
2018-Apr-11 11:45N 31°34' W 117°22'313.2
2018-Apr-11 11:30N 31°31' W 117°21'713.1
2018-Apr-11 11:00N 31°24' W 117°19'713.2
2018-Apr-11 10:30N 31°18' W 117°17'1212.6
2018-Apr-11 09:32N 31°06' W 117°14'012.4
2018-Apr-11 09:30N 31°06' W 117°14'812.6
2018-Apr-11 08:53N 30°58' W 117°12'512.6
2018-Apr-11 08:30N 30°53' W 117°11'612.7
2018-Apr-11 07:59N 30°47' W 117°09'612.6
2018-Apr-11 07:30N 30°41' W 117°08'712.8
2018-Apr-11 06:59N 30°35' W 117°06'612.8
2018-Apr-11 06:30N 30°29' W 117°04'712.8
2018-Apr-11 06:00N 30°22' W 117°02'1013.0
2018-Apr-11 05:12N 30°12' W 116°60'313.2
2018-Apr-11 04:59N 30°09' W 116°59'813.1
2018-Apr-11 04:24N 30°02' W 116°57'1513.1
2018-Apr-11 03:15N 29°47' W 116°53'412.9
2018-Apr-11 02:56N 29°43' W 116°52'612.9
2018-Apr-11 02:29N 29°37' W 116°51'613.1
2018-Apr-11 02:00N 29°31' W 116°49'613.1
2018-Apr-11 01:30N 29°25' W 116°47'713.2
2018-Apr-11 00:57N 29°18' W 116°46'  
Track history (hours):
 
Tides and Currents Weather Stations Pressure Air Temp Water Temp Dewpoint Dewpoint Depression Visibility Wind Speed Wind Dir Waves Ship Positions

Orient Challenge

Last reported at 2018-Apr-18 19:19 UTC. Time now 2018-Apr-20 12:28 UTC.
Position N 33°06' W 120°25'.

Length 183 m; draft 10.4 m.

Type: Tanker. MMSI: 563022700.

Date/timePositionNaut miles runAvg speedWind from/ knotsBaromVisibWave heightAir tempDewpointWater temp
2018-Apr-18 19:19N 33°06' W 120°25'3213.1
2018-Apr-18 16:53N 33°35' W 120°42'513.1
2018-Apr-18 16:30N 33°40' W 120°44'713.3
2018-Apr-18 16:00N 33°46' W 120°47'713.4
2018-Apr-18 15:30N 33°52' W 120°51'713.4
2018-Apr-18 15:00N 33°58' W 120°54'713.1
2018-Apr-18 14:30N 34°04' W 120°58'612.8
2018-Apr-18 14:00N 34°09' W 121°01'713.2
2018-Apr-18 13:30N 34°15' W 121°05'713.4
2018-Apr-18 13:00N 34°21' W 121°09'713.4
2018-Apr-18 12:30N 34°27' W 121°13'713.1
2018-Apr-18 12:00N 34°33' W 121°17'612.9
2018-Apr-18 11:30N 34°38' W 121°20'613.0
2018-Apr-18 11:00N 34°44' W 121°25'1113.2
2018-Apr-18 10:11N 34°53' W 121°31'213.1
2018-Apr-18 10:00N 34°55' W 121°33'913.1
2018-Apr-18 09:19N 35°03' W 121°38'413.1
2018-Apr-18 09:00N 35°07' W 121°40'13013.2
2018-Apr-17 23:11N 37°07' W 122°39'213.5
2018-Apr-17 23:00N 37°10' W 122°40'713.8
2018-Apr-17 22:30N 37°16' W 122°43'713.5
2018-Apr-17 22:00N 37°23' W 122°43'713.4
2018-Apr-17 21:31N 37°30' W 122°44'713.0
2018-Apr-17 21:00N 37°36' W 122°44'612.2
2018-Apr-17 20:30N 37°42' W 122°42'5 9.1
2018-Apr-17 20:00N 37°46' W 122°40'5 9.7
2018-Apr-17 19:30N 37°47' W 122°34'510.2
2018-Apr-17 19:00N 37°49' W 122°28'4 7.3
2018-Apr-17 18:30N 37°50' W 122°24'4 8.0
2018-Apr-17 18:00N 37°46' W 122°21'0 0.2
2018-Apr-17 17:30N 37°46' W 122°21'0 0.1
2018-Apr-17 17:00N 37°46' W 122°21'0 0.0
2018-Apr-17 16:30N 37°46' W 122°21'0 0.1
2018-Apr-17 16:00N 37°46' W 122°21'0 0.1
2018-Apr-17 15:30N 37°46' W 122°21'0 0.3
2018-Apr-17 15:00N 37°46' W 122°21'0 0.1
2018-Apr-17 14:30N 37°46' W 122°21'0 0.0
2018-Apr-17 14:00N 37°46' W 122°21'0 0.0
2018-Apr-17 13:30N 37°46' W 122°21'0 0.1
2018-Apr-17 13:00N 37°46' W 122°21'0 0.0
2018-Apr-17 12:30N 37°46' W 122°21'0 0.0
2018-Apr-17 12:00N 37°46' W 122°21'0 0.0
2018-Apr-17 11:30N 37°46' W 122°21'0 0.3
2018-Apr-17 11:00N 37°46' W 122°21'1 1.5
2018-Apr-17 10:30N 37°47' W 122°21'3 6.9
2018-Apr-17 10:00N 37°50' W 122°24'510.1
2018-Apr-17 09:30N 37°54' W 122°27'5 9.2
2018-Apr-17 09:00N 37°59' W 122°26'4 8.8
2018-Apr-17 08:30N 38°02' W 122°22'4 7.6
2018-Apr-17 08:00N 38°03' W 122°17'3 6.7
2018-Apr-17 07:30N 38°04' W 122°13'3 6.5
2018-Apr-17 07:00N 38°02' W 122°10'  
2018-Apr-14 05:00N 38°02' W 122°08'4 7.7
2018-Apr-14 04:30N 38°03' W 122°12'612.6
2018-Apr-14 04:00N 38°03' W 122°20'612.9
2018-Apr-14 03:30N 37°58' W 122°26'611.8
2018-Apr-14 03:00N 37°53' W 122°25'4 7.3
2018-Apr-14 02:30N 37°49' W 122°26'612.4
2018-Apr-14 02:01N 37°47' W 122°34'510.9
2018-Apr-14 01:30N 37°45' W 122°40'3 5.1
2018-Apr-14 01:00N 37°42' W 122°40'2 3.4
2018-Apr-14 00:30N 37°41' W 122°40'2 3.9
2018-Apr-14 00:00N 37°39' W 122°40'4 7.1
2018-Apr-13 23:30N 37°35' W 122°39'3 5.5
2018-Apr-13 23:00N 37°32' W 122°39'3 5.3
2018-Apr-13 22:30N 37°30' W 122°39'3 6.2
2018-Apr-13 22:00N 37°27' W 122°40'510.0
2018-Apr-13 21:30N 37°22' W 122°39'611.3
2018-Apr-13 21:01N 37°16' W 122°39'611.5
2018-Apr-13 20:30N 37°10' W 122°37'611.5
2018-Apr-13 20:00N 37°05' W 122°35'611.2
2018-Apr-13 19:30N 36°60' W 122°33'510.5
2018-Apr-13 19:00N 36°55' W 122°31'2 3.4
2018-Apr-13 18:30N 36°53' W 122°32'1 2.5
2018-Apr-13 18:00N 36°52' W 122°32'611.3
2018-Apr-13 17:29N 36°46' W 122°30'11110.8
2018-Apr-13 07:10N 35°03' W 121°38'1 9.1
2018-Apr-13 07:00N 35°02' W 121°37'5 9.1
2018-Apr-13 06:30N 34°58' W 121°35'4 8.8
2018-Apr-13 06:00N 34°54' W 121°32'4 8.7
2018-Apr-13 05:30N 34°50' W 121°30'5 9.0
2018-Apr-13 05:00N 34°46' W 121°27'4 8.6
2018-Apr-13 04:30N 34°43' W 121°24'4 8.5
2018-Apr-13 04:00N 34°39' W 121°22'4 8.7
2018-Apr-13 03:30N 34°35' W 121°19'4 8.7
2018-Apr-13 03:00N 34°32' W 121°16'4 8.8
2018-Apr-13 02:30N 34°28' W 121°14'4 8.4
2018-Apr-13 02:00N 34°24' W 121°11'4 8.6
2018-Apr-13 01:30N 34°20' W 121°08'5 8.9
2018-Apr-13 00:59N 34°16' W 121°06'4 8.8
2018-Apr-13 00:30N 34°13' W 121°03'4 8.4
2018-Apr-13 00:00N 34°09' W 121°01'4 8.8
2018-Apr-12 23:30N 34°05' W 120°58'5 9.1
2018-Apr-12 23:01N 34°01' W 120°56'4 8.8
2018-Apr-12 22:31N 33°58' W 120°53'4 8.8
2018-Apr-12 22:01N 33°54' W 120°50'4 8.6
2018-Apr-12 21:30N 33°50' W 120°47'4 8.3
2018-Apr-12 21:00N 33°48' W 120°43'5 9.4
2018-Apr-12 20:30N 33°45' W 120°38'5 9.6
2018-Apr-12 20:00N 33°43' W 120°33'510.4
2018-Apr-12 19:29N 33°41' W 120°27'510.3
2018-Apr-12 19:01N 33°39' W 120°22'510.1
2018-Apr-12 18:30N 33°36' W 120°16'510.0
2018-Apr-12 18:00N 33°34' W 120°11'5 9.4
2018-Apr-12 17:30N 33°33' W 120°05'610.3
2018-Apr-12 16:58N 33°33' W 119°59'510.1
2018-Apr-12 16:30N 33°33' W 119°53'510.2
2018-Apr-12 16:00N 33°33' W 119°47'510.3
2018-Apr-12 15:30N 33°32' W 119°41'510.4
2018-Apr-12 15:00N 33°32' W 119°35'510.5
2018-Apr-12 14:30N 33°33' W 119°28'510.6
2018-Apr-12 14:00N 33°34' W 119°22'611.1
2018-Apr-12 13:31N 33°35' W 119°16'612.1
2018-Apr-12 13:00N 33°36' W 119°08'612.2
2018-Apr-12 12:31N 33°37' W 119°01'611.3
2018-Apr-12 12:00N 33°36' W 118°55'511.0
2018-Apr-12 11:30N 33°35' W 118°48'510.3
2018-Apr-12 11:00N 33°35' W 118°42'510.2
2018-Apr-12 10:30N 33°34' W 118°36'510.3
2018-Apr-12 10:00N 33°33' W 118°30'510.3
2018-Apr-12 09:30N 33°33' W 118°24'611.0
2018-Apr-12 08:57N 33°34' W 118°17'511.5
2018-Apr-12 08:31N 33°38' W 118°13'5 9.2
2018-Apr-12 08:00N 33°43' W 118°11'2 3.9
2018-Apr-12 07:30N 33°44' W 118°13'0 0.4
2018-Apr-12 06:55N 33°44' W 118°13'0 0.1
2018-Apr-12 06:28N 33°44' W 118°13'0 0.0
2018-Apr-12 05:55N 33°44' W 118°13'0 0.1
2018-Apr-12 05:19N 33°44' W 118°13'0 0.2
2018-Apr-12 04:58N 33°44' W 118°13'0 0.1
2018-Apr-12 04:28N 33°44' W 118°13'0 0.1
2018-Apr-12 03:49N 33°44' W 118°13'0 0.1
2018-Apr-12 03:28N 33°44' W 118°13'0 0.0
2018-Apr-12 02:58N 33°44' W 118°13'0 0.1
2018-Apr-12 02:28N 33°43' W 118°13'0 0.1
2018-Apr-12 01:58N 33°43' W 118°13'0 0.2
2018-Apr-12 01:30N 33°44' W 118°13'0 0.6
2018-Apr-12 01:00N 33°44' W 118°13'0 0.6
2018-Apr-12 00:30N 33°44' W 118°12'3 5.9
2018-Apr-12 00:00N 33°41' W 118°11'3 6.1
2018-Apr-11 23:30N 33°38' W 118°10'4 7.0
2018-Apr-11 23:00N 33°35' W 118°09'4 7.8
2018-Apr-11 22:30N 33°31' W 118°08'510.2
2018-Apr-11 22:00N 33°26' W 118°06'612.0
2018-Apr-11 21:30N 33°20' W 118°03'611.5
2018-Apr-11 21:00N 33°15' W 118°00'611.2
2018-Apr-11 20:29N 33°10' W 117°57'511.2
2018-Apr-11 20:00N 33°05' W 117°54'611.6
2018-Apr-11 19:30N 32°60' W 117°52'612.2
2018-Apr-11 19:00N 32°54' W 117°49'612.4
2018-Apr-11 18:30N 32°49' W 117°45'612.3
2018-Apr-11 18:00N 32°43' W 117°42'712.3
2018-Apr-11 17:27N 32°37' W 117°39'511.8
2018-Apr-11 17:00N 32°32' W 117°37'1 2.0
2018-Apr-11 16:30N 32°31' W 117°37'2 4.1
2018-Apr-11 16:00N 32°29' W 117°37'713.0
2018-Apr-11 15:27N 32°22' W 117°35'713.4
2018-Apr-11 14:57N 32°15' W 117°33'613.3
2018-Apr-11 14:30N 32°10' W 117°31'813.5
2018-Apr-11 13:53N 32°01' W 117°29'513.4
2018-Apr-11 13:30N 31°56' W 117°28'713.1
2018-Apr-11 12:59N 31°50' W 117°26'1613.2
2018-Apr-11 11:45N 31°34' W 117°22'313.2
2018-Apr-11 11:30N 31°31' W 117°21'713.1
2018-Apr-11 11:00N 31°24' W 117°19'713.2
2018-Apr-11 10:30N 31°18' W 117°17'1212.6
2018-Apr-11 09:32N 31°06' W 117°14'012.4
2018-Apr-11 09:30N 31°06' W 117°14'812.6
2018-Apr-11 08:53N 30°58' W 117°12'512.6
2018-Apr-11 08:30N 30°53' W 117°11'612.7
2018-Apr-11 07:59N 30°47' W 117°09'612.6
2018-Apr-11 07:30N 30°41' W 117°08'712.8
2018-Apr-11 06:59N 30°35' W 117°06'612.8
2018-Apr-11 06:30N 30°29' W 117°04'712.8
2018-Apr-11 06:00N 30°22' W 117°02'1013.0
2018-Apr-11 05:12N 30°12' W 116°60'313.2
2018-Apr-11 04:59N 30°09' W 116°59'813.1
2018-Apr-11 04:24N 30°02' W 116°57'1513.1
2018-Apr-11 03:15N 29°47' W 116°53'412.9
2018-Apr-11 02:56N 29°43' W 116°52'612.9
2018-Apr-11 02:29N 29°37' W 116°51'613.1
2018-Apr-11 02:00N 29°31' W 116°49'613.1
2018-Apr-11 01:30N 29°25' W 116°47'713.2
2018-Apr-11 00:57N 29°18' W 116°46'  

Dump ship's entire track history